Wetterdaten: Woche 09.03.20 - 15.03.20 (KW11)
Datum Zeit Temp. Aussen Temp. o. S. Temp +5cm Feuchte Auss Luftdruck Regen Sonnenschein Regendauer Solar Windben Empfang
09.03.2020 00:00 7,0 C 6,0 C 5,3 C 96 % 1009,4 hPa 0,0 l/m 0,00 h 0,00 h 0 W/m 6,1 km/h (2 Bft) 95,65 %
09.03.2020 01:00 6,7 C 6,1 C 5,0 C 95 % 1009,5 hPa 0,0 l/m 0,00 h 0,00 h 0 W/m 9,3 km/h (2 Bft) 98,28 %
09.03.2020 02:00 6,8 C 6,1 C 5,2 C 95 % 1009,5 hPa 0,0 l/m 0,00 h 0,00 h 0 W/m 11,3 km/h (2 Bft) 96,43 %
09.03.2020 03:00 6,9 C 6,1 C 5,6 C 95 % 1009,5 hPa 0,0 l/m 0,00 h 0,00 h 0 W/m 14,5 km/h (3 Bft) 96,63 %
09.03.2020 04:00 6,8 C 6,1 C 5,6 C 95 % 1009,7 hPa 0,0 l/m 0,00 h 0,00 h 0 W/m 9,1 km/h (2 Bft) 98,79 %
09.03.2020 05:00 6,8 C 6,1 C 5,6 C 94 % 1010,2 hPa 0,0 l/m 0,00 h 0,00 h 0 W/m 11,0 km/h (2 Bft) 94,28 %
09.03.2020 06:00 6,7 C 6,0 C 5,4 C 94 % 1010,5 hPa 0,0 l/m 0,00 h 0,00 h 0 W/m 15,5 km/h (3 Bft) 98,79 %
09.03.2020 07:00 6,5 C 5,5 C 4,9 C 94 % 1010,9 hPa 0,4 l/m 0,20 h 0,43 h 22 W/m 11,6 km/h (2 Bft) 97,95 %
09.03.2020 08:00 6,5 C 5,8 C 5,2 C 96 % 1011,6 hPa 0,0 l/m 0,00 h 0,33 h 62 W/m 6,3 km/h (2 Bft) 97,18 %
09.03.2020 09:00 7,1 C 6,8 C 6,1 C 95 % 1012,3 hPa 0,0 l/m 0,00 h 0,00 h 131 W/m 13,1 km/h (3 Bft) 97,67 %
09.03.2020 10:00 7,8 C 7,9 C 7,2 C 91 % 1012,9 hPa 0,0 l/m 0,07 h 0,00 h 189 W/m 14,3 km/h (3 Bft) 95,34 %
09.03.2020 11:00 8,5 C 9,2 C 7,9 C 86 % 1013,4 hPa 0,0 l/m 0,20 h 0,10 h 205 W/m 14,8 km/h (3 Bft) 97,89 %
09.03.2020 12:00 9,1 C 10,6 C 8,8 C 86 % 1013,8 hPa 0,6 l/m 0,57 h 0,23 h 426 W/m 13,1 km/h (3 Bft) 98,58 %
09.03.2020 13:00 9,8 C 9,8 C 8,7 C 80 % 1014,1 hPa 0,0 l/m 0,27 h 0,00 h 263 W/m 17,5 km/h (3 Bft) 97,47 %
09.03.2020 14:00 9,4 C 10,0 C 8,9 C 76 % 1014,3 hPa 0,0 l/m 0,23 h 0,00 h 201 W/m 15,6 km/h (3 Bft) 96,61 %
09.03.2020 15:00 10,6 C 13,3 C 10,2 C 73 % 1014,3 hPa 0,0 l/m 0,83 h 0,00 h 391 W/m 17,1 km/h (3 Bft) 96,69 %
09.03.2020 16:00 10,1 C 9,8 C 9,2 C 73 % 1014,5 hPa 0,0 l/m 0,33 h 0,00 h 124 W/m 10,8 km/h (2 Bft) 98,39 %
09.03.2020 17:00 9,3 C 8,5 C 8,0 C 76 % 1015,1 hPa 0,0 l/m 0,33 h 0,03 h 44 W/m 10,1 km/h (2 Bft) 95,04 %
09.03.2020 18:00 8,4 C 7,3 C 6,8 C 78 % 1015,5 hPa 0,0 l/m 0,00 h 0,00 h 12 W/m 3,5 km/h (1 Bft) 96,84 %
09.03.2020 19:00 8,1 C 7,2 C 6,8 C 80 % 1015,4 hPa 0,0 l/m 0,00 h 0,00 h 0 W/m 5,1 km/h (1 Bft) 98,49 %
09.03.2020 20:00 7,9 C 7,0 C 6,4 C 84 % 1015,2 hPa 0,0 l/m 0,00 h 0,00 h 0 W/m 1,9 km/h (1 Bft) 98,51 %
09.03.2020 21:00 7,8 C 7,3 C 6,7 C 85 % 1014,9 hPa 0,0 l/m 0,00 h 0,00 h 0 W/m 16,5 km/h (3 Bft) 95,94 %
09.03.2020 22:00 8,2 C 7,4 C 6,8 C 82 % 1014,3 hPa 0,0 l/m 0,00 h 0,00 h 0 W/m 21,1 km/h (4 Bft) 97,58 %
09.03.2020 23:00 7,8 C 7,2 C 6,7 C 81 % 1013,7 hPa 0,0 l/m 0,00 h 0,00 h 0 W/m 23,8 km/h (4 Bft) 99,22 %
10.03.2020 00:00 7,8 C 7,2 C 6,7 C 79 % 1012,3 hPa 0,0 l/m 0,00 h 0,00 h 0 W/m 24,5 km/h (4 Bft) 96,63 %
10.03.2020 01:00 7,8 C 6,1 C 5,5 C 83 % 1011,1 hPa 0,2 l/m 0,00 h 0,83 h 0 W/m 27,9 km/h (4 Bft) 95,44 %
10.03.2020 02:00 7,2 C 5,2 C 4,4 C 88 % 1010,1 hPa 1,2 l/m 0,00 h 1,00 h 0 W/m 28,5 km/h (4 Bft) 97,03 %
10.03.2020 03:00 6,5 C 4,9 C 4,4 C 93 % 1008,0 hPa 2,4 l/m 0,00 h 1,00 h 0 W/m 32,4 km/h (5 Bft) 95,94 %
10.03.2020 04:00 6,0 C 4,4 C 4,2 C 95 % 1006,6 hPa 1,6 l/m 0,00 h 1,00 h 0 W/m 30,1 km/h (5 Bft) 98,73 %
10.03.2020 05:00 6,1 C 4,9 C 4,5 C 96 % 1006,2 hPa 0,6 l/m 0,00 h 1,00 h 0 W/m 27,8 km/h (4 Bft) 95,21 %
10.03.2020 06:00 6,7 C 5,7 C 5,1 C 97 % 1005,6 hPa 0,2 l/m 0,00 h 1,00 h 0 W/m 27,4 km/h (4 Bft) 96,07 %
10.03.2020 07:00 7,3 C 6,4 C 5,9 C 98 % 1005,5 hPa 0,0 l/m 0,00 h 1,00 h 9 W/m 19,7 km/h (3 Bft) 97,91 %
10.03.2020 08:00 8,0 C 7,1 C 6,5 C 98 % 1005,8 hPa 0,0 l/m 0,00 h 1,00 h 28 W/m 20,4 km/h (4 Bft) 94,73 %
10.03.2020 09:00 8,7 C 7,9 C 7,3 C 98 % 1005,9 hPa 0,0 l/m 0,00 h 0,97 h 67 W/m 18,4 km/h (3 Bft) 98,43 %
10.03.2020 10:00 9,4 C 8,3 C 7,9 C 98 % 1006,0 hPa 0,4 l/m 0,00 h 1,00 h 94 W/m 22,3 km/h (4 Bft) 99,15 %
10.03.2020 11:00 9,9 C 9,0 C 8,5 C 98 % 1005,8 hPa 0,0 l/m 0,00 h 1,00 h 92 W/m 22,7 km/h (4 Bft) 95,60 %
10.03.2020 12:00 10,6 C 9,8 C 9,4 C 98 % 1005,8 hPa 0,4 l/m 0,00 h 1,00 h 121 W/m 23,1 km/h (4 Bft) 98,01 %
10.03.2020 13:00 11,4 C 10,5 C 10,0 C 98 % 1005,4 hPa 0,0 l/m 0,00 h 1,00 h 119 W/m 22,0 km/h (4 Bft) 98,01 %
10.03.2020 14:00 11,7 C 10,7 C 10,1 C 98 % 1005,1 hPa 0,2 l/m 0,00 h 0,90 h 85 W/m 24,1 km/h (4 Bft) 97,72 %
10.03.2020 15:00 12,0 C 11,1 C 10,6 C 99 % 1004,9 hPa 0,2 l/m 0,00 h 0,87 h 81 W/m 22,7 km/h (4 Bft) 96,79 %
10.03.2020 16:00 12,1 C 11,1 C 10,6 C 99 % 1005,1 hPa 0,0 l/m 0,00 h 0,67 h 30 W/m 22,6 km/h (4 Bft) 98,43 %
10.03.2020 17:00 12,2 C 11,1 C 10,6 C 99 % 1005,3 hPa 0,0 l/m 0,00 h 0,57 h 13 W/m 17,8 km/h (3 Bft) 98,58 %
10.03.2020 18:00 12,3 C 11,1 C 10,6 C 99 % 1005,6 hPa 0,0 l/m 0,00 h 0,23 h 1 W/m 21,9 km/h (4 Bft) 94,78 %
10.03.2020 19:00 12,3 C 11,1 C 10,6 C 98 % 1006,2 hPa 0,2 l/m 0,00 h 0,87 h 0 W/m 23,9 km/h (4 Bft) 99,57 %
10.03.2020 20:00 12,2 C 10,7 C 10,2 C 98 % 1006,6 hPa 0,0 l/m 0,00 h 0,77 h 0 W/m 23,6 km/h (4 Bft) 98,57 %
10.03.2020 21:00 12,3 C 11,1 C 10,6 C 96 % 1006,7 hPa 0,0 l/m 0,00 h 0,07 h 0 W/m 26,7 km/h (4 Bft) 93,43 %
10.03.2020 22:00 12,6 C 11,5 C 10,8 C 93 % 1007,2 hPa 0,0 l/m 0,00 h 0,20 h 0 W/m 26,4 km/h (4 Bft) 99,36 %
10.03.2020 23:00 12,6 C 11,7 C 10,9 C 93 % 1007,6 hPa 0,2 l/m 0,00 h 0,33 h 0 W/m 25,2 km/h (4 Bft) 98,01 %
11.03.2020 00:00 12,2 C 10,6 C 10,0 C 96 % 1007,9 hPa 1,4 l/m 0,00 h 1,00 h 0 W/m 19,2 km/h (3 Bft) 95,64 %
11.03.2020 01:00 12,0 C 10,6 C 10,2 C 98 % 1008,4 hPa 1,8 l/m 0,00 h 0,87 h 0 W/m 16,1 km/h (3 Bft) 99,43 %
11.03.2020 02:00 11,7 C 10,6 C 10,0 C 99 % 1008,8 hPa 1,6 l/m 0,00 h 1,00 h 0 W/m 12,2 km/h (2 Bft) 97,94 %
11.03.2020 03:00 11,6 C 10,6 C 10,0 C 99 % 1009,1 hPa 1,2 l/m 0,00 h 1,00 h 0 W/m 8,7 km/h (2 Bft) 95,80 %
11.03.2020 04:00 11,1 C 9,7 C 9,3 C 100 % 1009,4 hPa 0,4 l/m 0,00 h 0,93 h 0 W/m 1,4 km/h (1 Bft) 97,78 %
11.03.2020 05:00 9,9 C 8,9 C 8,4 C 99 % 1009,8 hPa 0,6 l/m 0,00 h 0,93 h 0 W/m 0,1 km/h (0 Bft) 99,36 %
11.03.2020 06:00 10,5 C 9,9 C 9,4 C 100 % 1010,0 hPa 0,2 l/m 0,00 h 0,77 h 0 W/m 5,5 km/h (1 Bft) 96,35 %
11.03.2020 07:00 11,3 C 10,4 C 9,9 C 100 % 1010,4 hPa 0,6 l/m 0,00 h 0,87 h 12 W/m 9,7 km/h (2 Bft) 97,65 %
11.03.2020 08:00 10,6 C 9,6 C 9,4 C 100 % 1011,2 hPa 0,8 l/m 0,00 h 0,97 h 43 W/m 5,8 km/h (2 Bft) 99,22 %
11.03.2020 09:00 10,8 C 10,4 C 9,8 C 100 % 1011,7 hPa 0,0 l/m 0,00 h 0,23 h 103 W/m 1,7 km/h (1 Bft) 94,81 %
11.03.2020 10:00 11,0 C 10,3 C 10,0 C 100 % 1012,3 hPa 0,2 l/m 0,00 h 0,30 h 101 W/m 5,7 km/h (1 Bft) 98,15 %
11.03.2020 11:00 11,0 C 10,4 C 10,0 C 100 % 1012,6 hPa 0,2 l/m 0,00 h 0,73 h 102 W/m 4,6 km/h (1 Bft) 98,65 %
11.03.2020 12:00 11,1 C 10,6 C 10,1 C 100 % 1013,0 hPa 0,2 l/m 0,00 h 0,00 h 111 W/m 4,1 km/h (1 Bft) 96,61 %
11.03.2020 13:00 11,7 C 11,9 C 11,2 C 100 % 1012,9 hPa 0,0 l/m 0,00 h 0,00 h 178 W/m 2,6 km/h (1 Bft) 97,86 %
11.03.2020 14:00 12,5 C 13,1 C 11,7 C 100 % 1012,6 hPa 0,0 l/m 0,17 h 0,00 h 203 W/m 10,7 km/h (2 Bft) 98,50 %
11.03.2020 15:00 13,5 C 15,1 C 13,1 C 96 % 1012,4 hPa 0,0 l/m 0,53 h 0,00 h 250 W/m 17,5 km/h (3 Bft) 98,36 %
11.03.2020 16:00 14,7 C 15,8 C 14,5 C 84 % 1012,3 hPa 0,0 l/m 0,77 h 0,00 h 236 W/m 21,0 km/h (4 Bft) 96,95 %
11.03.2020 17:00 14,6 C 13,9 C 12,9 C 83 % 1012,0 hPa 0,0 l/m 0,10 h 0,00 h 57 W/m 20,0 km/h (4 Bft) 96,79 %
11.03.2020 18:00 13,7 C 12,7 C 12,0 C 89 % 1011,9 hPa 0,0 l/m 0,00 h 0,00 h 12 W/m 24,1 km/h (4 Bft) 97,80 %
11.03.2020 19:00 13,2 C 11,8 C 11,3 C 91 % 1011,6 hPa 0,6 l/m 0,00 h 0,40 h 0 W/m 18,2 km/h (3 Bft) 98,51 %
11.03.2020 20:00 12,5 C 11,1 C 10,6 C 96 % 1010,9 hPa 0,2 l/m 0,00 h 0,07 h 0 W/m 14,3 km/h (3 Bft) 97,36 %
11.03.2020 21:00 12,3 C 11,1 C 10,6 C 98 % 1010,0 hPa 0,2 l/m 0,00 h 0,73 h 0 W/m 15,0 km/h (3 Bft) 96,65 %
11.03.2020 22:00 12,6 C 11,7 C 11,0 C 97 % 1009,2 hPa 0,0 l/m 0,00 h 0,30 h 0 W/m 27,7 km/h (4 Bft) 98,22 %
11.03.2020 23:00 13,4 C 12,7 C 11,9 C 89 % 1008,8 hPa 0,0 l/m 0,00 h 0,00 h 0 W/m 36,9 km/h (5 Bft) 97,09 %
12.03.2020 00:00 13,5 C 12,8 C 12,0 C 85 % 1008,3 hPa 0,0 l/m 0,00 h 0,00 h 0 W/m 39,1 km/h (6 Bft) 97,68 %
12.03.2020 01:00 13,5 C 12,5 C 11,8 C 85 % 1007,9 hPa 0,0 l/m 0,00 h 0,53 h 0 W/m 32,8 km/h (5 Bft) 98,29 %
12.03.2020 02:00 13,1 C 12,2 C 11,7 C 86 % 1007,4 hPa 0,0 l/m 0,00 h 0,00 h 0 W/m 37,8 km/h (5 Bft) 96,72 %
12.03.2020 03:00 12,9 C 11,9 C 11,3 C 86 % 1006,5 hPa 0,0 l/m 0,00 h 0,17 h 0 W/m 35,4 km/h (5 Bft) 97,64 %
12.03.2020 04:00 12,6 C 11,8 C 11,1 C 85 % 1005,9 hPa 0,0 l/m 0,00 h 0,00 h 0 W/m 32,9 km/h (5 Bft) 97,58 %
12.03.2020 05:00 11,9 C 9,9 C 9,5 C 89 % 1006,6 hPa 0,4 l/m 0,00 h 0,83 h 0 W/m 30,6 km/h (5 Bft) 97,86 %
12.03.2020 06:00 10,5 C 8,6 C 7,9 C 90 % 1007,1 hPa 0,0 l/m 0,00 h 0,93 h 0 W/m 30,4 km/h (5 Bft) 98,08 %
12.03.2020 07:00 9,9 C 8,7 C 7,6 C 89 % 1007,7 hPa 0,2 l/m 0,00 h 0,57 h 22 W/m 30,0 km/h (5 Bft) 95,45 %
12.03.2020 08:00 8,0 C 7,0 C 6,3 C 85 % 1009,3 hPa 0,0 l/m 0,10 h 0,87 h 53 W/m 31,5 km/h (5 Bft) 99,00 %
12.03.2020 09:00 8,7 C 10,1 C 8,5 C 81 % 1010,6 hPa 0,0 l/m 0,33 h 0,00 h 203 W/m 25,0 km/h (4 Bft) 97,26 %
12.03.2020 10:00 10,1 C 13,7 C 9,3 C 70 % 1011,8 hPa 0,0 l/m 0,93 h 0,00 h 505 W/m 24,6 km/h (4 Bft) 95,09 %
12.03.2020 11:00 11,4 C 15,8 C 10,0 C 55 % 1012,5 hPa 0,0 l/m 1,00 h 0,00 h 625 W/m 24,3 km/h (4 Bft) 97,44 %
12.03.2020 12:00 12,2 C 16,6 C 12,5 C 55 % 1012,8 hPa 0,0 l/m 1,00 h 0,00 h 674 W/m 21,6 km/h (4 Bft) 94,44 %
12.03.2020 13:00 12,7 C 16,6 C 14,2 C 52 % 1012,7 hPa 0,0 l/m 1,00 h 0,00 h 681 W/m 23,5 km/h (4 Bft) 97,65 %
12.03.2020 14:00 12,6 C 16,1 C 11,4 C 50 % 1012,2 hPa 0,0 l/m 0,97 h 0,00 h 573 W/m 20,4 km/h (4 Bft) 98,00 %
12.03.2020 15:00 12,1 C 13,3 C 11,4 C 52 % 1011,9 hPa 0,0 l/m 0,53 h 0,00 h 297 W/m 22,1 km/h (4 Bft) 98,29 %
12.03.2020 16:00 11,6 C 12,3 C 11,4 C 55 % 1011,2 hPa 0,0 l/m 0,57 h 0,00 h 217 W/m 20,0 km/h (4 Bft) 99,00 %
12.03.2020 17:00 9,9 C 8,6 C 8,1 C 66 % 1011,6 hPa 0,0 l/m 0,13 h 0,33 h 40 W/m 22,5 km/h (4 Bft) 94,66 %
12.03.2020 18:00 7,7 C 6,4 C 6,2 C 77 % 1011,9 hPa 0,0 l/m 0,00 h 0,00 h 12 W/m 3,4 km/h (1 Bft) 97,64 %
12.03.2020 19:00 7,4 C 6,8 C 6,3 C 77 % 1011,8 hPa 0,0 l/m 0,00 h 0,00 h 0 W/m 8,2 km/h (2 Bft) 97,72 %
12.03.2020 20:00 8,0 C 7,2 C 6,8 C 72 % 1011,8 hPa 0,0 l/m 0,00 h 0,00 h 0 W/m 18,1 km/h (3 Bft) 97,65 %
12.03.2020 21:00 7,7 C 6,9 C 6,4 C 75 % 1011,9 hPa 0,0 l/m 0,00 h 0,00 h 0 W/m 17,1 km/h (3 Bft) 97,96 %
12.03.2020 22:00 7,2 C 6,4 C 6,0 C 79 % 1012,2 hPa 0,0 l/m 0,00 h 0,00 h 0 W/m 22,0 km/h (4 Bft) 96,28 %
12.03.2020 23:00 6,5 C 5,7 C 5,2 C 82 % 1012,5 hPa 0,0 l/m 0,00 h 0,00 h 0 W/m 18,5 km/h (3 Bft) 97,34 %
13.03.2020 00:00 6,1 C 5,2 C 4,6 C 83 % 1012,6 hPa 0,0 l/m 0,00 h 0,00 h 0 W/m 16,7 km/h (3 Bft) 97,52 %
13.03.2020 01:00 5,6 C 5,0 C 4,4 C 86 % 1012,8 hPa 0,0 l/m 0,00 h 0,00 h 0 W/m 19,3 km/h (3 Bft) 99,00 %
13.03.2020 02:00 5,6 C 4,9 C 4,4 C 86 % 1012,8 hPa 0,0 l/m 0,00 h 0,00 h 0 W/m 19,8 km/h (4 Bft) 94,81 %
13.03.2020 03:00 5,8 C 5,3 C 4,8 C 85 % 1013,0 hPa 0,0 l/m 0,00 h 0,00 h 0 W/m 21,5 km/h (4 Bft) 99,42 %
13.03.2020 04:00 6,0 C 5,5 C 4,9 C 85 % 1013,0 hPa 0,0 l/m 0,00 h 0,00 h 0 W/m 22,4 km/h (4 Bft) 98,97 %
13.03.2020 05:00 6,2 C 5,5 C 5,0 C 85 % 1013,0 hPa 0,0 l/m 0,00 h 0,10 h 0 W/m 19,6 km/h (3 Bft) 96,51 %
13.03.2020 06:00 6,2 C 5,6 C 5,0 C 85 % 1013,4 hPa 0,0 l/m 0,00 h 0,00 h 0 W/m 20,5 km/h (4 Bft) 98,22 %
13.03.2020 07:00 6,5 C 6,1 C 5,5 C 84 % 1014,2 hPa 0,0 l/m 0,00 h 0,03 h 15 W/m 15,2 km/h (3 Bft) 97,28 %
13.03.2020 08:00 6,9 C 6,8 C 6,1 C 83 % 1015,3 hPa 0,0 l/m 0,00 h 0,00 h 85 W/m 15,2 km/h (3 Bft) 98,50 %
13.03.2020 09:00 7,5 C 7,7 C 6,7 C 81 % 1016,1 hPa 0,0 l/m 0,27 h 0,00 h 136 W/m 18,6 km/h (3 Bft) 97,74 %
13.03.2020 10:00 8,1 C 8,5 C 7,6 C 78 % 1016,7 hPa 0,0 l/m 0,13 h 0,00 h 174 W/m 17,4 km/h (3 Bft) 96,58 %
13.03.2020 11:00 8,8 C 9,0 C 8,1 C 75 % 1017,5 hPa 0,0 l/m 0,20 h 0,17 h 209 W/m 20,4 km/h (4 Bft) 98,64 %
13.03.2020 12:00 9,3 C 10,4 C 9,6 C 75 % 1017,9 hPa 0,0 l/m 0,27 h 0,03 h 259 W/m 13,5 km/h (3 Bft) 96,97 %
13.03.2020 13:00 10,0 C 10,2 C 9,8 C 74 % 1018,4 hPa 0,0 l/m 0,10 h 0,20 h 183 W/m 13,7 km/h (3 Bft) 98,58 %
13.03.2020 14:00 10,6 C 14,5 C 10,4 C 75 % 1018,7 hPa 0,0 l/m 0,93 h 0,03 h 534 W/m 11,3 km/h (2 Bft) 97,86 %
13.03.2020 15:00 11,1 C 11,2 C 10,2 C 69 % 1018,8 hPa 0,0 l/m 0,10 h 0,00 h 143 W/m 7,4 km/h (2 Bft) 94,82 %
13.03.2020 16:00 10,1 C 10,8 C 9,1 C 75 % 1019,0 hPa 0,0 l/m 0,73 h 0,17 h 240 W/m 8,9 km/h (2 Bft) 99,72 %
13.03.2020 17:00 9,2 C 6,9 C 6,6 C 79 % 1019,2 hPa 0,6 l/m 0,00 h 0,70 h 27 W/m 2,5 km/h (1 Bft) 97,96 %
13.03.2020 18:00 7,6 C 5,7 C 5,4 C 88 % 1020,0 hPa 0,2 l/m 0,00 h 0,23 h 6 W/m 0,9 km/h (0 Bft) 94,44 %
13.03.2020 19:00 7,0 C 5,2 C 5,2 C 91 % 1020,7 hPa 0,0 l/m 0,00 h 0,23 h 0 W/m 0,0 km/h (0 Bft) 97,62 %
13.03.2020 20:00 6,4 C 4,6 C 4,2 C 92 % 1021,1 hPa 0,0 l/m 0,00 h 0,00 h 0 W/m 0,0 km/h (0 Bft) 98,01 %
13.03.2020 21:00 5,8 C 4,4 C 3,5 C 92 % 1021,3 hPa 0,0 l/m 0,00 h 0,00 h 0 W/m 0,0 km/h (0 Bft) 97,51 %
13.03.2020 22:00 5,5 C 4,4 C 3,9 C 93 % 1021,7 hPa 0,0 l/m 0,00 h 0,00 h 0 W/m 0,0 km/h (0 Bft) 96,73 %
13.03.2020 23:00 5,4 C 4,0 C 3,3 C 94 % 1021,8 hPa 0,0 l/m 0,00 h 0,00 h 0 W/m 0,0 km/h (0 Bft) 96,80 %
14.03.2020 00:00 4,4 C 2,3 C 1,5 C 93 % 1021,6 hPa 0,0 l/m 0,00 h 0,00 h 0 W/m 0,0 km/h (0 Bft) 96,05 %
14.03.2020 01:00 3,3 C 1,8 C 0,8 C 93 % 1021,6 hPa 0,0 l/m 0,00 h 0,00 h 0 W/m 0,0 km/h (0 Bft) 97,20 %
14.03.2020 02:00 2,7 C 1,2 C 0,7 C 94 % 1021,7 hPa 0,2 l/m 0,00 h 0,00 h 0 W/m 0,0 km/h (0 Bft) 98,15 %
14.03.2020 03:00 2,5 C 1,6 C 1,1 C 95 % 1021,4 hPa 0,0 l/m 0,00 h 0,00 h 0 W/m 0,0 km/h (0 Bft) 95,73 %
14.03.2020 04:00 2,7 C 2,0 C 1,2 C 96 % 1021,1 hPa 0,0 l/m 0,00 h 0,00 h 0 W/m 0,0 km/h (0 Bft) 99,86 %
14.03.2020 05:00 3,0 C 1,7 C 1,2 C 96 % 1021,1 hPa 0,0 l/m 0,00 h 0,00 h 0 W/m 0,0 km/h (0 Bft) 99,93 %
14.03.2020 06:00 2,6 C 1,5 C 0,9 C 97 % 1021,1 hPa 0,0 l/m 0,00 h 0,00 h 6 W/m 0,0 km/h (0 Bft) 98,17 %
14.03.2020 07:00 3,2 C 2,7 C 2,1 C 98 % 1021,3 hPa 0,0 l/m 0,08 h 0,00 h 43 W/m 0,0 km/h (0 Bft) 97,52 %
14.03.2020 08:00 4,1 C 3,9 C 3,3 C 98 % 1021,6 hPa 0,0 l/m 0,00 h 0,00 h 81 W/m 1,8 km/h (1 Bft) 97,65 %
14.03.2020 09:00 5,6 C 8,8 C 6,9 C 99 % 1021,8 hPa 0,0 l/m 0,83 h 0,00 h 331 W/m 6,9 km/h (2 Bft) 96,79 %
14.03.2020 10:00 8,1 C 12,9 C 7,0 C 92 % 1021,7 hPa 0,0 l/m 1,00 h 0,00 h 517 W/m 8,6 km/h (2 Bft) 98,22 %
14.03.2020 11:00 10,5 C 14,9 C 9,2 C 77 % 1021,5 hPa 0,0 l/m 1,00 h 0,00 h 600 W/m 3,3 km/h (1 Bft) 98,22 %
14.03.2020 12:00 11,9 C 15,1 C 11,3 C 70 % 1021,1 hPa 0,0 l/m 0,80 h 0,00 h 559 W/m 10,3 km/h (2 Bft) 98,08 %
14.03.2020 13:00 11,7 C 14,0 C 12,6 C 69 % 1020,7 hPa 0,0 l/m 0,53 h 0,00 h 439 W/m 7,6 km/h (2 Bft) 97,94 %
14.03.2020 14:00 11,9 C 11,7 C 11,2 C 61 % 1020,1 hPa 0,0 l/m 0,10 h 0,00 h 177 W/m 9,9 km/h (2 Bft) 97,94 %
14.03.2020 15:00 11,1 C 10,6 C 10,0 C 65 % 1019,8 hPa 0,0 l/m 0,00 h 0,07 h 67 W/m 3,0 km/h (1 Bft) 95,59 %
14.03.2020 16:00 11,6 C 13,3 C 12,2 C 65 % 1019,4 hPa 0,0 l/m 0,67 h 0,00 h 272 W/m 1,1 km/h (0 Bft) 98,29 %
14.03.2020 17:00 11,6 C 10,9 C 10,3 C 63 % 1019,2 hPa 0,0 l/m 0,17 h 0,00 h 67 W/m 10,7 km/h (2 Bft) 99,36 %
14.03.2020 18:00 10,7 C 9,6 C 9,1 C 66 % 1019,3 hPa 0,0 l/m 0,00 h 0,00 h 9 W/m 5,7 km/h (1 Bft) 95,40 %
14.03.2020 19:00 10,1 C 9,1 C 8,6 C 70 % 1019,7 hPa 0,0 l/m 0,00 h 0,00 h 0 W/m 1,9 km/h (1 Bft) 97,73 %
14.03.2020 20:00 9,6 C 8,6 C 8,1 C 73 % 1019,7 hPa 0,0 l/m 0,00 h 0,03 h 0 W/m 4,8 km/h (1 Bft) 98,08 %
14.03.2020 21:00 9,0 C 7,9 C 7,6 C 77 % 1019,5 hPa 0,0 l/m 0,00 h 0,00 h 0 W/m 9,5 km/h (2 Bft) 95,11 %
14.03.2020 22:00 8,6 C 7,6 C 7,0 C 80 % 1019,3 hPa 0,0 l/m 0,00 h 0,00 h 0 W/m 2,9 km/h (1 Bft) 93,41 %
14.03.2020 23:00 7,9 C 6,9 C 6,3 C 81 % 1019,0 hPa 0,0 l/m 0,00 h 0,00 h 0 W/m 1,1 km/h (0 Bft) 92,78 %
15.03.2020 00:00 7,3 C 6,5 C 5,8 C 83 % 1018,7 hPa 0,0 l/m 0,00 h 0,00 h 0 W/m 5,9 km/h (2 Bft) 95,69 %
15.03.2020 01:00 7,1 C 6,2 C 5,7 C 85 % 1018,3 hPa 0,0 l/m 0,00 h 0,00 h 0 W/m 2,7 km/h (1 Bft) 95,87 %
15.03.2020 02:00 7,2 C 6,7 C 6,1 C 84 % 1017,8 hPa 0,0 l/m 0,00 h 0,00 h 0 W/m 8,7 km/h (2 Bft) 96,87 %
15.03.2020 03:00 7,2 C 6,6 C 5,9 C 84 % 1017,3 hPa 0,0 l/m 0,00 h 0,00 h 0 W/m 4,6 km/h (1 Bft) 95,68 %
15.03.2020 04:00 7,2 C 6,6 C 6,0 C 84 % 1016,8 hPa 0,0 l/m 0,00 h 0,00 h 0 W/m 6,3 km/h (2 Bft) 99,06 %
15.03.2020 05:00 6,7 C 5,8 C 5,2 C 84 % 1016,6 hPa 0,0 l/m 0,00 h 0,00 h 0 W/m 4,8 km/h (1 Bft) 98,15 %
15.03.2020 06:00 6,3 C 5,6 C 5,0 C 85 % 1016,4 hPa 0,0 l/m 0,00 h 0,00 h 7 W/m 2,1 km/h (1 Bft) 94,18 %
15.03.2020 07:00 6,3 C 5,8 C 5,2 C 86 % 1016,4 hPa 0,0 l/m 0,00 h 0,00 h 35 W/m 5,6 km/h (1 Bft) 97,30 %
15.03.2020 08:00 6,9 C 7,0 C 6,3 C 86 % 1016,6 hPa 0,0 l/m 0,00 h 0,00 h 71 W/m 2,8 km/h (1 Bft) 98,98 %
15.03.2020 09:00 9,2 C 11,9 C 10,6 C 81 % 1016,3 hPa 0,0 l/m 0,93 h 0,00 h 316 W/m 7,3 km/h (2 Bft) 95,74 %
15.03.2020 10:00 11,6 C 14,1 C 12,1 C 77 % 1015,7 hPa 0,0 l/m 1,00 h 0,00 h 418 W/m 14,5 km/h (3 Bft) 97,08 %
15.03.2020 11:00 13,5 C 15,3 C 13,0 C 72 % 1015,0 hPa 0,0 l/m 0,70 h 0,00 h 457 W/m 17,8 km/h (3 Bft) 97,79 %
15.03.2020 12:00 13,9 C 15,2 C 14,1 C 69 % 1014,4 hPa 0,0 l/m 0,57 h 0,00 h 363 W/m 24,5 km/h (4 Bft) 97,72 %
15.03.2020 13:00 14,0 C 14,1 C 13,6 C 67 % 1013,7 hPa 0,0 l/m 0,10 h 0,00 h 231 W/m 26,6 km/h (4 Bft) 98,15 %
15.03.2020 14:00 14,3 C 15,0 C 14,1 C 66 % 1013,0 hPa 0,0 l/m 0,87 h 0,00 h 317 W/m 23,6 km/h (4 Bft) 96,94 %
15.03.2020 15:00 14,8 C 15,6 C 14,6 C 65 % 1012,7 hPa 0,0 l/m 0,83 h 0,00 h 274 W/m 16,1 km/h (3 Bft) 97,94 %
15.03.2020 16:00 14,8 C 14,3 C 13,8 C 67 % 1012,4 hPa 0,0 l/m 0,00 h 0,00 h 103 W/m 13,3 km/h (3 Bft) 97,64 %
15.03.2020 17:00 14,4 C 13,7 C 13,0 C 68 % 1012,3 hPa 0,0 l/m 0,00 h 0,00 h 53 W/m 7,8 km/h (2 Bft) 98,08 %
15.03.2020 18:00 13,6 C 12,5 C 11,9 C 70 % 1012,4 hPa 0,0 l/m 0,00 h 0,00 h 12 W/m 2,6 km/h (1 Bft) 97,31 %
15.03.2020 19:00 12,9 C 11,8 C 11,1 C 73 % 1012,8 hPa 0,0 l/m 0,00 h 0,00 h 0 W/m 1,0 km/h (0 Bft) 97,21 %
15.03.2020 20:00 12,1 C 11,1 C 10,6 C 74 % 1012,9 hPa 0,0 l/m 0,00 h 0,00 h 0 W/m 0,8 km/h (0 Bft) 98,15 %
15.03.2020 21:00 11,5 C 10,3 C 9,5 C 74 % 1013,0 hPa 0,0 l/m 0,00 h 0,00 h 0 W/m 1,7 km/h (1 Bft) 97,13 %
15.03.2020 22:00 10,5 C 8,9 C 8,0 C 75 % 1013,2 hPa 0,0 l/m 0,00 h 0,00 h 0 W/m 0,2 km/h (0 Bft) 95,34 %
15.03.2020 23:00 9,1 C 7,4 C 6,0 C 78 % 1013,4 hPa 0,0 l/m 0,00 h 0,00 h 0 W/m 0,0 km/h (0 Bft) 98,65 %
Min-Datum _ 14.03.20 14.03.20 14.03.20 12.03.20 10.03.20 - - - - 09.03.20 14.03.20
_ Min-Zeit 02:52 01:14 01:28 13:50 15:06 - - - - 00:10 01:50
Minimum _ 2,4 C 1,1 C 0,6 C 46 % 1004,7 hPa - - - - 0,0 km/h (0 Bft) 31,03 %
Max-Datum _ 11.03.20 12.03.20 12.03.20 11.03.20 13.03.20 10.03.20 14.03.20 10.03.20 14.03.20 12.03.20 09.03.20
_ Max-Zeit 16:36 12:52 13:18 03:38 23:10 03:32 07:10 04:07 13:00 00:54 00:50
Maximum _ 15,1 C 18,3 C 18,3 C 100 % 1021,9 hPa 2,4 l/m 0,08 h 0,08 h 816 W/m 64,4 km/h
S (8 Bft)
100,00 %
Durchschnitt _ 9,4 C 9,0 C 8,1 C 85 % 1013,3 hPa #20,6 l/m #24:05 h #36:48 h 186 W/m 14,0 km/h (3 Bft) 97,31 %
© 2020 W. Hausmann